KHOT/HOT METAR and TAF weather

Enter ICAO airport designator
Station Type Date Time Source
KHOT METAR 2018/12/11 22:53 UTC NOAA

KHOT 112253Z AUTO 20007KT 10SM CLR 13/M01 A3020 RMK AO2 SLP228 T01281006


Station Type Date Time Source
KHOT Decoded METAR 2018/12/11 22:53 UTC NOAA

HOT SPRINGS MEMORIAL FIELD, AR, United States (KHOT) 34-29N 093-06W 162M
Dec 11, 2018 - 05:53 PM EST / 2018.12.11 2253 UTC
Wind: from the SSW (200 degrees) at 8 MPH (7 KT):0
Visibility: 10 mile(s):0
Sky conditions: clear
Temperature: 55.0 F (12.8 C)
Dew Point: 30.9 F (-0.6 C)
Relative Humidity: 39%
Pressure (altimeter): 30.2 in. Hg (1022 hPa)
ob: KHOT 112253Z AUTO 20007KT 10SM CLR 13/M01 A3020 RMK AO2 SLP228 T01281006
cycle: 23

Station Type Date Time Source
KHOT TAF 2018/12/11 18:33 UTC NOAA

TAF KHOT 111730Z 1118/1218 19006KT P6SM SKC
FM112200 21007KT P6SM BKN250
FM121200 23006KT P6SM OVC250


Example: see airport list